createdAt,value
2022-11-01T00:00:00.050Z,998.25
2022-11-01T00:01:00.028Z,998.23
2022-11-01T00:02:00.109Z,998.22
2022-11-01T00:03:00.021Z,998.21
2022-11-01T00:03:59.985Z,998.20
2022-11-01T00:04:59.993Z,998.24
2022-11-01T00:05:59.989Z,998.27
2022-11-01T00:06:59.968Z,998.27
2022-11-01T00:08:00.142Z,998.32
2022-11-01T00:08:59.950Z,998.37
2022-11-01T00:09:59.917Z,998.39
2022-11-01T00:10:59.927Z,998.38
2022-11-01T00:11:59.909Z,998.34
2022-11-01T00:13:00.193Z,998.30
2022-11-01T00:13:59.893Z,998.28
2022-11-01T00:14:59.876Z,998.32
2022-11-01T00:15:59.852Z,998.28
2022-11-01T00:16:59.869Z,998.28
2022-11-01T00:17:59.842Z,998.30
2022-11-01T00:18:59.862Z,998.30
2022-11-01T00:19:59.867Z,998.28
2022-11-01T00:20:59.821Z,998.28
2022-11-01T00:21:59.787Z,998.32
2022-11-01T00:23:00.206Z,998.31
2022-11-01T00:23:59.792Z,998.33
2022-11-01T00:24:59.770Z,998.32
2022-11-01T00:25:59.766Z,998.30
2022-11-01T00:26:59.741Z,998.29
2022-11-01T00:27:59.947Z,998.30
2022-11-01T00:28:59.748Z,998.30
2022-11-01T00:29:59.729Z,998.26
2022-11-01T00:30:59.717Z,998.22
2022-11-01T00:31:59.679Z,998.19
2022-11-01T00:32:59.720Z,998.18
2022-11-01T00:33:59.672Z,998.16
2022-11-01T00:34:59.670Z,998.16
2022-11-01T00:35:59.646Z,998.15
2022-11-01T00:36:59.659Z,998.16
2022-11-01T00:38:00.007Z,998.17
2022-11-01T00:38:59.624Z,998.16
2022-11-01T00:39:59.599Z,998.14
2022-11-01T00:40:59.603Z,998.11
2022-11-01T00:41:59.580Z,998.13
2022-11-01T00:42:59.569Z,998.13
2022-11-01T00:43:59.552Z,998.13
2022-11-01T00:44:59.581Z,998.14
2022-11-01T00:45:59.537Z,998.12
2022-11-01T00:46:59.533Z,998.10
2022-11-01T00:47:59.744Z,998.08
2022-11-01T00:48:59.526Z,998.08
2022-11-01T00:49:59.507Z,998.06
2022-11-01T00:50:59.496Z,998.07
2022-11-01T00:51:59.467Z,998.06
2022-11-01T00:52:59.486Z,998.00
2022-11-01T00:53:59.439Z,997.99
2022-11-01T00:54:59.461Z,997.98
2022-11-01T00:55:59.448Z,997.93
2022-11-01T00:56:59.425Z,997.92
2022-11-01T00:57:59.703Z,997.91
2022-11-01T00:58:59.408Z,997.89
2022-11-01T01:00:00.595Z,997.86
2022-11-01T01:00:59.497Z,997.85
2022-11-01T01:01:59.492Z,997.84
2022-11-01T01:02:59.807Z,997.83
2022-11-01T01:03:59.332Z,997.82
2022-11-01T01:04:59.332Z,997.80
2022-11-01T01:05:59.315Z,997.81
2022-11-01T01:06:59.329Z,997.77
2022-11-01T01:07:59.305Z,997.77
2022-11-01T01:08:59.293Z,997.72
2022-11-01T01:09:59.268Z,997.70
2022-11-01T01:10:59.280Z,997.67
2022-11-01T01:11:59.270Z,997.68
2022-11-01T01:12:59.543Z,997.67
2022-11-01T01:13:59.246Z,997.63
2022-11-01T01:14:59.221Z,997.61
2022-11-01T01:15:59.193Z,997.60
2022-11-01T01:16:59.207Z,997.61
2022-11-01T01:17:59.516Z,997.61
2022-11-01T01:18:59.190Z,997.61
2022-11-01T01:19:59.183Z,997.60
2022-11-01T01:20:59.161Z,997.59
2022-11-01T01:21:59.169Z,997.55
2022-11-01T01:22:59.164Z,997.53
2022-11-01T01:23:59.166Z,997.48
2022-11-01T01:24:59.111Z,997.44
2022-11-01T01:25:59.106Z,997.41
2022-11-01T01:26:59.090Z,997.40
2022-11-01T01:27:59.238Z,997.39
2022-11-01T01:28:59.081Z,997.38
2022-11-01T01:29:59.060Z,997.37
2022-11-01T01:30:59.063Z,997.37
2022-11-01T01:31:59.049Z,997.37
2022-11-01T01:32:59.049Z,997.38
2022-11-01T01:33:59.039Z,997.38
2022-11-01T01:34:59.021Z,997.34
2022-11-01T01:35:59.024Z,997.35
2022-11-01T01:36:58.998Z,997.32
2022-11-01T01:37:59.171Z,997.31
2022-11-01T01:38:58.963Z,997.31
2022-11-01T01:39:59.000Z,997.31
2022-11-01T01:40:58.927Z,997.31
2022-11-01T01:41:58.946Z,997.30
2022-11-01T01:42:58.917Z,997.26
2022-11-01T01:43:58.912Z,997.27
2022-11-01T01:44:58.888Z,997.25
2022-11-01T01:45:58.933Z,997.24
2022-11-01T01:46:58.863Z,997.23
2022-11-01T01:47:59.073Z,997.23
2022-11-01T01:48:58.855Z,997.22
2022-11-01T01:49:58.837Z,997.23
2022-11-01T01:50:58.838Z,997.22
2022-11-01T01:51:58.847Z,997.27
2022-11-01T01:52:59.093Z,997.29
2022-11-01T01:53:58.817Z,997.28
2022-11-01T01:54:58.785Z,997.25
2022-11-01T01:55:58.884Z,997.26
2022-11-01T01:56:58.752Z,997.25
2022-11-01T01:57:58.772Z,997.24
2022-11-01T01:58:58.746Z,997.21
2022-11-01T01:59:58.739Z,997.22
2022-11-01T02:00:58.773Z,997.21
2022-11-01T02:01:58.841Z,997.21
2022-11-01T02:02:58.941Z,997.18
2022-11-01T02:03:58.696Z,997.15
2022-11-01T02:04:58.666Z,997.15
2022-11-01T02:05:58.675Z,997.14
2022-11-01T02:06:58.649Z,997.17
2022-11-01T02:07:58.877Z,997.17
2022-11-01T02:08:58.629Z,997.19
2022-11-01T02:09:58.642Z,997.21
2022-11-01T02:10:58.607Z,997.20
2022-11-01T02:11:58.607Z,997.18
2022-11-01T02:12:58.582Z,997.18
2022-11-01T02:13:58.581Z,997.19
2022-11-01T02:14:58.589Z,997.19
2022-11-01T02:15:58.562Z,997.20
2022-11-01T02:16:58.541Z,997.24
2022-11-01T02:18:04.266Z,997.25
2022-11-01T02:18:58.521Z,997.19
2022-11-01T02:19:58.522Z,997.15
2022-11-01T02:20:58.580Z,997.10
2022-11-01T02:21:58.511Z,997.12
2022-11-01T02:22:58.625Z,997.12
2022-11-01T02:23:58.500Z,997.15
2022-11-01T02:24:58.469Z,997.17
2022-11-01T02:25:58.444Z,997.18
2022-11-01T02:26:58.436Z,997.17
2022-11-01T02:27:58.450Z,997.17
2022-11-01T02:29:01.773Z,997.19
2022-11-01T02:29:58.449Z,997.20
2022-11-01T02:30:58.441Z,997.19
2022-11-01T02:31:58.407Z,997.20
2022-11-01T02:32:58.475Z,997.20
2022-11-01T02:33:58.399Z,997.17
2022-11-01T02:34:58.352Z,997.21
2022-11-01T02:35:58.342Z,997.22
2022-11-01T02:36:58.340Z,997.24
2022-11-01T02:37:58.320Z,997.22
2022-11-01T02:38:58.380Z,997.23
2022-11-01T02:39:58.300Z,997.22
2022-11-01T02:40:58.280Z,997.18
2022-11-01T02:41:58.301Z,997.10
2022-11-01T02:42:58.543Z,997.06
2022-11-01T02:43:58.266Z,997.09
2022-11-01T02:44:58.992Z,997.12
2022-11-01T02:45:58.304Z,997.14
2022-11-01T02:46:58.241Z,997.13
2022-11-01T02:47:58.220Z,997.15
2022-11-01T02:48:58.227Z,997.17
2022-11-01T02:49:58.211Z,997.17
2022-11-01T02:50:58.171Z,997.17
2022-11-01T02:51:58.166Z,997.13
2022-11-01T02:52:58.279Z,997.12
2022-11-01T02:53:58.147Z,997.15
2022-11-01T02:54:58.122Z,997.16
2022-11-01T02:55:58.123Z,997.17
2022-11-01T02:56:58.108Z,997.17
2022-11-01T02:57:58.098Z,997.15
2022-11-01T02:58:58.210Z,997.19
2022-11-01T02:59:58.095Z,997.17
2022-11-01T03:00:58.103Z,997.15
2022-11-01T03:01:58.187Z,997.18
2022-11-01T03:02:58.040Z,997.19
2022-11-01T03:03:58.036Z,997.22
2022-11-01T03:04:58.051Z,997.20
2022-11-01T03:05:58.013Z,997.17
2022-11-01T03:06:58.026Z,997.18
2022-11-01T03:07:58.012Z,997.19
2022-11-01T03:08:58.002Z,997.20
2022-11-01T03:09:57.970Z,997.21
2022-11-01T03:10:57.984Z,997.21
2022-11-01T03:11:57.974Z,997.19
2022-11-01T03:12:57.920Z,997.20
2022-11-01T03:13:57.924Z,997.18
2022-11-01T03:14:57.913Z,997.18
2022-11-01T03:15:57.926Z,997.21
2022-11-01T03:16:57.901Z,997.18
2022-11-01T03:17:57.890Z,997.20
2022-11-01T03:18:59.421Z,997.20
2022-11-01T03:19:57.870Z,997.18
2022-11-01T03:20:57.857Z,997.16
2022-11-01T03:21:57.836Z,997.15
2022-11-01T03:22:57.822Z,997.17
2022-11-01T03:23:57.819Z,997.16
2022-11-01T03:24:57.815Z,997.15
2022-11-01T03:25:57.806Z,997.21
2022-11-01T03:26:57.791Z,997.24
2022-11-01T03:27:57.793Z,997.25
2022-11-01T03:28:57.746Z,997.26
2022-11-01T03:29:57.749Z,997.27
2022-11-01T03:30:57.734Z,997.25
2022-11-01T03:31:57.747Z,997.22
2022-11-01T03:32:57.710Z,997.19
2022-11-01T03:33:57.706Z,997.19
2022-11-01T03:34:57.692Z,997.15
2022-11-01T03:35:57.706Z,997.17
2022-11-01T03:36:57.696Z,997.19
2022-11-01T03:37:57.667Z,997.20
2022-11-01T03:38:57.650Z,997.23
2022-11-01T03:39:57.648Z,997.24
2022-11-01T03:40:57.617Z,997.22
2022-11-01T03:41:57.647Z,997.25
2022-11-01T03:42:57.615Z,997.26
2022-11-01T03:43:57.602Z,997.26
2022-11-01T03:44:57.583Z,997.24
2022-11-01T03:45:57.587Z,997.24
2022-11-01T03:46:57.580Z,997.24
2022-11-01T03:47:57.583Z,997.27
2022-11-01T03:48:57.544Z,997.26
2022-11-01T03:49:57.534Z,997.27
2022-11-01T03:50:57.519Z,997.26
2022-11-01T03:51:57.508Z,997.25
2022-11-01T03:52:57.530Z,997.26
2022-11-01T03:53:57.504Z,997.30
2022-11-01T03:54:57.472Z,997.27
2022-11-01T03:55:57.471Z,997.30
2022-11-01T03:56:57.450Z,997.28
2022-11-01T03:57:57.441Z,997.27
2022-11-01T03:58:57.462Z,997.29
2022-11-01T03:59:57.427Z,997.28
2022-11-01T04:00:57.475Z,997.30
2022-11-01T04:01:57.642Z,997.29
2022-11-01T04:02:57.437Z,997.32
2022-11-01T04:03:57.394Z,997.32
2022-11-01T04:04:57.381Z,997.33
2022-11-01T04:05:57.355Z,997.34
2022-11-01T04:06:57.362Z,997.37
2022-11-01T04:07:57.335Z,997.38
2022-11-01T04:08:57.327Z,997.41
2022-11-01T04:09:57.351Z,997.41
2022-11-01T04:10:57.329Z,997.41
2022-11-01T04:11:57.315Z,997.40
2022-11-01T04:12:57.285Z,997.42
2022-11-01T04:13:57.264Z,997.44
2022-11-01T04:14:57.269Z,997.44
2022-11-01T04:15:57.248Z,997.45
2022-11-01T04:16:57.340Z,997.41
2022-11-01T04:17:57.229Z,997.42
2022-11-01T04:18:57.211Z,997.43
2022-11-01T04:19:57.236Z,997.47
2022-11-01T04:20:57.179Z,997.49
2022-11-01T04:21:57.197Z,997.47
2022-11-01T04:22:57.181Z,997.48
2022-11-01T04:23:57.165Z,997.47
2022-11-01T04:24:57.150Z,997.48
2022-11-01T04:25:57.142Z,997.49
2022-11-01T04:26:57.153Z,997.49
2022-11-01T04:27:57.127Z,997.50
2022-11-01T04:28:57.381Z,997.52
2022-11-01T04:29:57.096Z,997.51
2022-11-01T04:30:57.082Z,997.53
2022-11-01T04:31:57.086Z,997.53
2022-11-01T04:32:57.075Z,997.54
2022-11-01T04:33:57.071Z,997.54
2022-11-01T04:34:57.084Z,997.57
2022-11-01T04:35:57.041Z,997.61
2022-11-01T04:36:57.043Z,997.65
2022-11-01T04:37:57.009Z,997.66
2022-11-01T04:38:56.996Z,997.71
2022-11-01T04:39:56.994Z,997.68
2022-11-01T04:40:56.976Z,997.70
2022-11-01T04:41:56.978Z,997.69
2022-11-01T04:42:56.971Z,997.71
2022-11-01T04:43:56.999Z,997.72
2022-11-01T04:44:56.926Z,997.69
2022-11-01T04:45:56.926Z,997.73
2022-11-01T04:46:56.903Z,997.72
2022-11-01T04:47:56.901Z,997.74
2022-11-01T04:48:56.924Z,997.75
2022-11-01T04:49:56.884Z,997.76
2022-11-01T04:50:56.890Z,997.74
2022-11-01T04:51:56.864Z,997.67
2022-11-01T04:52:56.871Z,997.71
2022-11-01T04:53:56.865Z,997.71
2022-11-01T04:54:56.814Z,997.73
2022-11-01T04:55:56.823Z,997.73
2022-11-01T04:56:56.822Z,997.75
2022-11-01T04:57:56.805Z,997.76
2022-11-01T04:58:56.826Z,997.75
2022-11-01T04:59:56.771Z,997.80
2022-11-01T05:00:56.812Z,997.81
2022-11-01T05:01:56.776Z,997.81
2022-11-01T05:02:56.725Z,997.84
2022-11-01T05:03:56.762Z,997.83
2022-11-01T05:04:56.701Z,997.78
2022-11-01T05:05:56.699Z,997.82
2022-11-01T05:06:56.689Z,997.79
2022-11-01T05:07:56.707Z,997.79
2022-11-01T05:08:56.668Z,997.78
2022-11-01T05:09:56.676Z,997.80
2022-11-01T05:10:56.657Z,997.86
2022-11-01T05:11:56.680Z,997.87
2022-11-01T05:12:56.622Z,997.89
2022-11-01T05:13:56.643Z,997.90
2022-11-01T05:14:57.033Z,997.86
2022-11-01T05:16:18.437Z,997.84
2022-11-01T05:16:56.581Z,997.90
2022-11-01T05:17:56.590Z,997.93
2022-11-01T05:18:56.547Z,997.93
2022-11-01T05:19:56.582Z,997.91
2022-11-01T05:20:56.527Z,997.94
2022-11-01T05:21:56.521Z,997.94
2022-11-01T05:22:56.536Z,997.86
2022-11-01T05:23:56.512Z,997.88
2022-11-01T05:24:56.516Z,997.86
2022-11-01T05:25:56.537Z,997.88
2022-11-01T05:26:56.476Z,997.91
2022-11-01T05:27:56.476Z,997.91
2022-11-01T05:28:56.447Z,997.93
2022-11-01T05:29:56.461Z,997.98
2022-11-01T05:30:56.448Z,997.97
2022-11-01T05:31:56.448Z,998.01
2022-11-01T05:32:56.424Z,998.01
2022-11-01T05:33:56.404Z,998.03
2022-11-01T05:34:56.384Z,998.06
2022-11-01T05:35:56.386Z,998.10
2022-11-01T05:36:56.403Z,998.17
2022-11-01T05:37:56.353Z,998.15
2022-11-01T05:38:56.391Z,998.16
2022-11-01T05:39:56.345Z,998.14
2022-11-01T05:40:56.361Z,998.17
2022-11-01T05:41:59.845Z,998.16
2022-11-01T05:42:56.321Z,998.17
2022-11-01T05:43:56.278Z,998.20
2022-11-01T05:44:56.294Z,998.24
2022-11-01T05:45:56.283Z,998.28
2022-11-01T05:46:56.275Z,998.28
2022-11-01T05:47:56.236Z,998.35
2022-11-01T05:48:56.270Z,998.32
2022-11-01T05:49:56.218Z,998.33
2022-11-01T05:50:56.214Z,998.26
2022-11-01T05:51:56.230Z,998.29
2022-11-01T05:52:56.215Z,998.27
2022-11-01T05:53:56.181Z,998.25
2022-11-01T05:54:56.180Z,998.24
2022-11-01T05:55:56.146Z,998.25
2022-11-01T05:56:56.165Z,998.26
2022-11-01T05:57:56.182Z,998.27
2022-11-01T05:58:56.098Z,998.31
2022-11-01T05:59:56.053Z,998.30
2022-11-01T06:00:56.056Z,998.30
2022-11-01T06:01:56.167Z,998.29
2022-11-01T06:02:56.117Z,998.31
2022-11-01T06:03:56.026Z,998.34
2022-11-01T06:04:59.108Z,998.37
2022-11-01T06:05:56.009Z,998.40
2022-11-01T06:06:55.996Z,998.34
2022-11-01T06:07:55.998Z,998.44
2022-11-01T06:08:55.978Z,998.49
2022-11-01T06:09:55.956Z,998.45
2022-11-01T06:10:55.941Z,998.55
2022-11-01T06:11:55.925Z,998.41
2022-11-01T06:12:55.916Z,998.52
2022-11-01T06:13:55.929Z,998.53
2022-11-01T06:14:55.903Z,998.54
2022-11-01T06:15:55.880Z,998.53
2022-11-01T06:16:55.882Z,998.62
2022-11-01T06:17:55.871Z,998.67
2022-11-01T06:18:55.867Z,998.66
2022-11-01T06:19:55.837Z,998.71
2022-11-01T06:20:55.852Z,998.67
2022-11-01T06:21:55.812Z,998.70
2022-11-01T06:22:55.821Z,998.72
2022-11-01T06:23:55.820Z,998.72
2022-11-01T06:24:55.798Z,998.76
2022-11-01T06:25:55.789Z,998.79
2022-11-01T06:26:55.822Z,998.79
2022-11-01T06:27:55.762Z,998.80
2022-11-01T06:28:55.764Z,998.88
2022-11-01T06:29:55.767Z,999.02
2022-11-01T06:30:55.768Z,998.96
2022-11-01T06:31:55.719Z,999.04
2022-11-01T06:32:55.726Z,999.02
2022-11-01T06:33:55.693Z,999.14
2022-11-01T06:34:55.701Z,999.16
2022-11-01T06:35:55.668Z,999.17
2022-11-01T06:36:55.663Z,999.21
2022-11-01T06:37:55.643Z,999.16
2022-11-01T06:38:55.646Z,999.20
2022-11-01T06:39:55.649Z,999.26
2022-11-01T06:40:55.646Z,999.27
2022-11-01T06:41:55.596Z,999.19
2022-11-01T06:42:55.606Z,999.38
2022-11-01T06:43:55.651Z,999.35
2022-11-01T06:44:55.594Z,999.40
2022-11-01T06:45:55.569Z,999.48
2022-11-01T06:46:55.578Z,999.44
2022-11-01T06:47:55.546Z,999.44
2022-11-01T06:48:55.558Z,999.48
2022-11-01T06:49:55.571Z,999.49
2022-11-01T06:50:55.517Z,999.49
2022-11-01T06:51:55.519Z,999.52
2022-11-01T06:52:55.534Z,999.56
2022-11-01T06:53:55.545Z,999.59
2022-11-01T06:54:55.494Z,999.67
2022-11-01T06:55:55.488Z,999.67
2022-11-01T06:56:55.572Z,999.66
2022-11-01T06:57:55.465Z,999.64
2022-11-01T06:58:55.435Z,999.75
2022-11-01T06:59:55.493Z,999.73
2022-11-01T07:00:55.537Z,999.71
2022-11-01T07:01:55.567Z,999.67
2022-11-01T07:02:55.502Z,999.77
2022-11-01T07:03:55.401Z,999.76
2022-11-01T07:04:55.351Z,999.76
2022-11-01T07:05:55.378Z,999.77
2022-11-01T07:06:55.345Z,999.84
2022-11-01T07:07:55.319Z,999.88
2022-11-01T07:08:55.324Z,999.92
2022-11-01T07:09:55.312Z,999.92
2022-11-01T07:10:55.299Z,1000.04
2022-11-01T07:11:55.345Z,1000.02
2022-11-01T07:12:55.283Z,1000.01
2022-11-01T07:13:55.315Z,999.93
2022-11-01T07:14:55.288Z,1000.05
2022-11-01T07:15:55.311Z,1000.11
2022-11-01T07:16:55.261Z,1000.16
2022-11-01T07:17:55.221Z,1000.25
2022-11-01T07:18:55.232Z,1000.25
2022-11-01T07:19:56.412Z,1000.15
2022-11-01T07:20:55.195Z,1000.19
2022-11-01T07:21:55.183Z,1000.26
2022-11-01T07:22:55.166Z,1000.33
2022-11-01T07:23:55.160Z,1000.37
2022-11-01T07:24:55.165Z,1000.33
2022-11-01T07:25:55.133Z,1000.42
2022-11-01T07:26:55.131Z,1000.45
2022-11-01T07:27:55.133Z,1000.48
2022-11-01T07:28:55.160Z,1000.44
2022-11-01T07:29:55.124Z,1000.48
2022-11-01T07:30:55.168Z,1000.67
2022-11-01T07:31:55.069Z,1000.50
2022-11-01T07:32:55.077Z,1000.61
2022-11-01T07:33:55.378Z,1000.61
2022-11-01T07:34:55.359Z,1000.51
2022-11-01T07:35:55.066Z,1000.58
2022-11-01T07:36:55.029Z,1000.55
2022-11-01T07:37:55.169Z,1000.58
2022-11-01T07:38:55.081Z,1000.53
2022-11-01T07:39:55.044Z,1000.66
2022-11-01T07:40:54.997Z,1000.54
2022-11-01T07:41:54.993Z,1000.55
2022-11-01T07:42:54.989Z,1000.61
2022-11-01T07:43:55.084Z,1000.58
2022-11-01T07:44:54.940Z,1000.61
2022-11-01T07:45:54.913Z,1000.67
2022-11-01T07:46:54.919Z,1000.67
2022-11-01T07:47:54.917Z,1000.73
2022-11-01T07:48:55.187Z,1000.69
2022-11-01T07:49:54.872Z,1000.75
2022-11-01T07:50:54.918Z,1000.75
2022-11-01T07:51:58.911Z,1000.75
2022-11-01T07:52:54.938Z,1000.77
2022-11-01T07:53:56.169Z,1000.80
2022-11-01T07:54:54.811Z,1000.81
2022-11-01T07:55:54.827Z,1000.81
2022-11-01T07:56:54.809Z,1000.86
2022-11-01T07:57:54.804Z,1000.93
2022-11-01T07:58:55.854Z,1000.87
2022-11-01T07:59:54.801Z,1000.95
2022-11-01T08:00:54.809Z,1000.97
2022-11-01T08:01:54.897Z,1000.87
2022-11-01T08:02:54.720Z,1000.86
2022-11-01T08:03:56.530Z,1000.89
2022-11-01T08:04:54.720Z,1000.91
2022-11-01T08:05:54.714Z,1000.90
2022-11-01T08:06:55.124Z,1000.90
2022-11-01T08:07:54.702Z,1000.89
2022-11-01T08:08:54.701Z,1000.95
2022-11-01T08:09:54.673Z,1000.96
2022-11-01T08:10:54.662Z,1000.96
2022-11-01T08:11:54.626Z,1001.03
2022-11-01T08:12:54.667Z,1000.99
2022-11-01T08:13:57.847Z,1000.99
2022-11-01T08:14:54.688Z,1001.06
2022-11-01T08:15:54.600Z,1001.14
2022-11-01T08:16:54.614Z,1000.99
2022-11-01T08:17:54.614Z,1001.10
2022-11-01T08:18:54.621Z,1001.11
2022-11-01T08:19:54.543Z,1001.13
2022-11-01T08:20:54.585Z,1001.17
2022-11-01T08:21:54.517Z,1001.12
2022-11-01T08:22:54.519Z,1001.18
2022-11-01T08:23:54.489Z,1001.11
2022-11-01T08:24:54.515Z,1001.14
2022-11-01T08:25:54.482Z,1001.18
2022-11-01T08:26:54.472Z,1001.31
2022-11-01T08:27:54.451Z,1001.25
2022-11-01T08:28:54.974Z,1001.27
2022-11-01T08:29:54.457Z,1001.27
2022-11-01T08:30:54.431Z,1001.36
2022-11-01T08:31:54.425Z,1001.34
2022-11-01T08:32:54.413Z,1001.32
2022-11-01T08:33:54.395Z,1001.30
2022-11-01T08:34:54.393Z,1001.34
2022-11-01T08:35:54.362Z,1001.41
2022-11-01T08:36:54.395Z,1001.31
2022-11-01T08:37:54.339Z,1001.33
2022-11-01T08:38:54.592Z,1001.40
2022-11-01T08:39:54.351Z,1001.41
2022-11-01T08:40:54.320Z,1001.41
2022-11-01T08:41:54.314Z,1001.45
2022-11-01T08:42:54.302Z,1001.63
2022-11-01T08:43:54.912Z,1001.50
2022-11-01T08:44:54.281Z,1001.55
2022-11-01T08:45:54.271Z,1001.48
2022-11-01T08:46:54.250Z,1001.55
2022-11-01T08:47:54.228Z,1001.67
2022-11-01T08:48:54.423Z,1001.62
2022-11-01T08:49:54.204Z,1001.69
2022-11-01T08:50:54.226Z,1001.58
2022-11-01T08:51:54.193Z,1001.66
2022-11-01T08:52:54.201Z,1001.68
2022-11-01T08:53:54.172Z,1001.73
2022-11-01T08:54:54.194Z,1001.67
2022-11-01T08:55:54.178Z,1001.65
2022-11-01T08:56:54.141Z,1001.66
2022-11-01T08:57:54.124Z,1001.75
2022-11-01T08:58:54.199Z,1001.64
2022-11-01T08:59:54.127Z,1001.66
2022-11-01T09:00:54.156Z,1001.60
2022-11-01T09:01:54.209Z,1001.68
2022-11-01T09:02:54.079Z,1001.62
2022-11-01T09:03:54.065Z,1001.66
2022-11-01T09:04:54.072Z,1001.69
2022-11-01T09:05:54.065Z,1001.71
2022-11-01T09:06:54.053Z,1001.81
2022-11-01T09:07:54.009Z,1001.74
2022-11-01T09:08:54.042Z,1001.78
2022-11-01T09:09:54.026Z,1001.86
2022-11-01T09:10:54.049Z,1001.79
2022-11-01T09:11:53.975Z,1001.76
2022-11-01T09:12:53.986Z,1001.83
2022-11-01T09:13:53.966Z,1001.77
2022-11-01T09:14:53.954Z,1001.80
2022-11-01T09:15:55.349Z,1001.88
2022-11-01T09:16:53.946Z,1001.89
2022-11-01T09:17:53.933Z,1001.86
2022-11-01T09:18:53.897Z,1001.89
2022-11-01T09:19:53.887Z,1001.91
2022-11-01T09:20:59.451Z,1001.92
2022-11-01T09:21:53.878Z,1001.89
2022-11-01T09:22:53.910Z,1001.99
2022-11-01T09:23:53.862Z,1001.94
2022-11-01T09:24:53.864Z,1001.89
2022-11-01T09:25:53.823Z,1002.02
2022-11-01T09:26:53.821Z,1001.97
2022-11-01T09:27:53.840Z,1002.07
2022-11-01T09:28:53.802Z,1002.24
2022-11-01T09:29:53.778Z,1002.10
2022-11-01T09:31:01.405Z,1002.10
2022-11-01T09:31:53.779Z,1002.07
2022-11-01T09:32:53.759Z,1002.09
2022-11-01T09:33:53.753Z,1002.16
2022-11-01T09:34:53.762Z,1002.21
2022-11-01T09:35:59.187Z,1002.09
2022-11-01T09:36:53.742Z,1002.14
2022-11-01T09:37:53.746Z,1002.20
2022-11-01T09:38:53.740Z,1002.18
2022-11-01T09:39:54.214Z,1002.18
2022-11-01T09:40:53.680Z,1002.15
2022-11-01T09:41:53.660Z,1002.16
2022-11-01T09:42:57.808Z,1002.29
2022-11-01T09:43:53.652Z,1002.24
2022-11-01T09:44:53.623Z,1002.28
2022-11-01T09:45:53.615Z,1002.23
2022-11-01T09:46:56.606Z,1002.30
2022-11-01T09:47:53.586Z,1002.28
2022-11-01T09:48:53.681Z,1002.30
2022-11-01T09:49:53.607Z,1002.31
2022-11-01T09:50:53.918Z,1002.28
2022-11-01T09:51:53.545Z,1002.35
2022-11-01T09:52:53.587Z,1002.37
2022-11-01T09:53:53.589Z,1002.41
2022-11-01T09:54:54.427Z,1002.41
2022-11-01T09:55:53.553Z,1002.40
2022-11-01T09:56:53.587Z,1002.46
2022-11-01T09:57:53.483Z,1002.55
2022-11-01T09:58:55.194Z,1002.40
2022-11-01T09:59:53.658Z,1002.48
2022-11-01T10:00:53.532Z,1002.51
2022-11-01T10:01:53.642Z,1002.58
2022-11-01T10:02:53.431Z,1002.48
2022-11-01T10:03:53.435Z,1002.40
2022-11-01T10:04:53.413Z,1002.61
2022-11-01T10:05:53.431Z,1002.54
2022-11-01T10:06:53.389Z,1002.64
2022-11-01T10:07:53.408Z,1002.43
2022-11-01T10:08:53.403Z,1002.50
2022-11-01T10:09:53.412Z,1002.47
2022-11-01T10:10:53.357Z,1002.47
2022-11-01T10:11:53.348Z,1002.55
2022-11-01T10:12:53.338Z,1002.55
2022-11-01T10:13:53.330Z,1002.58
2022-11-01T10:14:53.305Z,1002.63
2022-11-01T10:15:53.340Z,1002.61
2022-11-01T10:16:53.300Z,1002.58
2022-11-01T10:17:53.286Z,1002.60
2022-11-01T10:18:53.699Z,1002.63
2022-11-01T10:19:53.296Z,1002.64
2022-11-01T10:20:53.228Z,1002.73
2022-11-01T10:21:53.257Z,1002.66
2022-11-01T10:22:53.220Z,1002.54
2022-11-01T10:23:53.395Z,1002.53
2022-11-01T10:24:53.194Z,1002.52
2022-11-01T10:25:53.238Z,1002.65
2022-11-01T10:26:53.234Z,1002.59
2022-11-01T10:27:53.165Z,1002.61
2022-11-01T10:28:53.828Z,1002.68
2022-11-01T10:29:53.147Z,1002.63
2022-11-01T10:30:53.148Z,1002.67
2022-11-01T10:31:53.150Z,1002.61
2022-11-01T10:32:53.112Z,1002.63
2022-11-01T10:33:53.108Z,1002.62
2022-11-01T10:34:53.077Z,1002.74
2022-11-01T10:35:53.095Z,1002.66
2022-11-01T10:36:53.140Z,1002.65
2022-11-01T10:38:04.343Z,1002.68
2022-11-01T10:39:55.689Z,1002.63
2022-11-01T10:40:53.055Z,1002.62
2022-11-01T10:41:53.052Z,1002.59
2022-11-01T10:42:53.006Z,1002.57
2022-11-01T10:43:53.015Z,1002.61
2022-11-01T10:44:52.981Z,1002.67
2022-11-01T10:45:52.972Z,1002.55
2022-11-01T10:46:52.975Z,1002.47
2022-11-01T10:47:52.962Z,1002.65
2022-11-01T10:48:52.995Z,1002.57
2022-11-01T10:50:05.508Z,1002.60
2022-11-01T10:50:53.055Z,1002.66
2022-11-01T10:51:52.918Z,1002.58
2022-11-01T10:52:52.910Z,1002.59
2022-11-01T10:53:52.893Z,1002.61
2022-11-01T10:54:52.886Z,1002.58
2022-11-01T10:55:52.877Z,1002.58
2022-11-01T10:56:52.858Z,1002.58
2022-11-01T10:57:52.857Z,1002.63
2022-11-01T10:58:53.790Z,1002.54
2022-11-01T10:59:53.081Z,1002.61
2022-11-01T11:00:52.977Z,1002.65
2022-11-01T11:01:52.941Z,1002.66
2022-11-01T11:02:52.777Z,1002.49
2022-11-01T11:03:52.815Z,1002.68
2022-11-01T11:04:52.809Z,1002.51
2022-11-01T11:05:52.776Z,1002.55
2022-11-01T11:06:52.756Z,1002.61
2022-11-01T11:07:52.764Z,1002.60
2022-11-01T11:08:52.749Z,1002.63
2022-11-01T11:09:52.785Z,1002.66
2022-11-01T11:10:52.734Z,1002.70
2022-11-01T11:11:52.740Z,1002.66
2022-11-01T11:12:52.762Z,1002.74
2022-11-01T11:13:52.700Z,1002.65
2022-11-01T11:14:52.670Z,1002.67
2022-11-01T11:15:52.702Z,1002.70
2022-11-01T11:16:52.666Z,1002.57
2022-11-01T11:17:52.652Z,1002.77
2022-11-01T11:18:52.634Z,1002.68
2022-11-01T11:19:52.624Z,1002.68
2022-11-01T11:20:52.650Z,1002.64
2022-11-01T11:21:52.600Z,1002.65
2022-11-01T11:22:52.612Z,1002.84
2022-11-01T11:23:52.577Z,1002.75
2022-11-01T11:24:52.567Z,1002.78
2022-11-01T11:25:52.559Z,1002.77
2022-11-01T11:26:54.311Z,1002.76
2022-11-01T11:27:52.559Z,1002.74
2022-11-01T11:28:52.543Z,1002.71
2022-11-01T11:29:52.567Z,1002.74
2022-11-01T11:30:52.502Z,1002.76
2022-11-01T11:31:52.517Z,1002.78
2022-11-01T11:32:52.491Z,1002.77
2022-11-01T11:33:52.477Z,1002.75
2022-11-01T11:34:52.469Z,1002.81
2022-11-01T11:35:52.460Z,1002.82
2022-11-01T11:36:52.438Z,1002.77
2022-11-01T11:37:52.475Z,1002.79
2022-11-01T11:38:52.415Z,1002.85
2022-11-01T11:39:52.445Z,1002.89
2022-11-01T11:40:52.406Z,1003.05
2022-11-01T11:41:52.403Z,1003.00
2022-11-01T11:42:52.377Z,1003.02
2022-11-01T11:43:52.388Z,1003.15
2022-11-01T11:44:55.562Z,1003.05
2022-11-01T11:45:52.429Z,1003.02
2022-11-01T11:46:52.326Z,1002.97
2022-11-01T11:47:52.345Z,1003.03
2022-11-01T11:48:52.332Z,1003.10
2022-11-01T11:49:52.305Z,1003.02
2022-11-01T11:50:52.299Z,1003.02
2022-11-01T11:51:52.409Z,1003.12
2022-11-01T11:52:52.260Z,1003.12
2022-11-01T11:53:52.273Z,1003.12
2022-11-01T11:54:52.243Z,1003.09
2022-11-01T11:55:52.252Z,1003.17
2022-11-01T11:56:52.212Z,1003.15
2022-11-01T11:57:52.263Z,1003.16
2022-11-01T11:58:52.207Z,1003.17
2022-11-01T11:59:52.207Z,1003.10
2022-11-01T12:00:52.168Z,1003.15
2022-11-01T12:01:52.301Z,1003.11
2022-11-01T12:02:52.210Z,1003.14
2022-11-01T12:03:52.180Z,1003.26
2022-11-01T12:04:52.155Z,1003.16
2022-11-01T12:05:52.135Z,1003.30
2022-11-01T12:06:52.112Z,1003.22
2022-11-01T12:07:52.143Z,1003.24
2022-11-01T12:08:52.096Z,1003.16
2022-11-01T12:09:52.128Z,1003.16
2022-11-01T12:10:52.072Z,1003.31
2022-11-01T12:11:52.072Z,1003.08
2022-11-01T12:12:52.046Z,1003.13
2022-11-01T12:13:52.079Z,1003.09
2022-11-01T12:14:52.041Z,1003.10
2022-11-01T12:15:52.099Z,1003.08
2022-11-01T12:16:52.065Z,1003.11
2022-11-01T12:17:52.012Z,1003.11
2022-11-01T12:18:52.861Z,1003.14